Terminal Aerodrome Forecast
Issued by NWS Caribou, ME

Current Version | Previous Version | Text Only | Print | Product List | Glossary On
Versions: 1 2 3 4 5 6 7 8 9 10 11 12 13 14 15 16 17 18 19 20 21 22
967 FTUS41 KCAR 200532 TAFCAR TAF KCAR 200532Z 2006/2106 33009KT P6SM BKN035 TEMPO 2006/2010 3SM -SHSN OVC025 FM201500 33010G17KT P6SM BKN035 FM201800 33010G17KT P6SM SCT040 FM210200 33006KT P6SM FEW100=

USA.gov is the U.S. government's official web portal to all federal, state and local government web resources and services.